Time,TemperatureF,DewpointF,PressureIn,WindDirection,WindDirectionDegrees,WindSpeedMPH,WindSpeedGustMPH,Humidity,HourlyPrecipIn,Conditions,Clouds,dailyrainin,SoftwareType,DateUTC
2013-08-03 00:07:00,68.8,66.0,29.87,West,269,0.0,1.0,92,0.00,,,0.42,weatherlink.com 1.10,2013-08-03 04:07:00,
2013-08-03 00:22:00,68.6,67.0,29.87,West,269,0.0,1.0,93,0.00,,,0.42,weatherlink.com 1.10,2013-08-03 04:22:00,
2013-08-03 00:37:00,68.5,67.0,29.87,West,269,0.0,0.0,93,0.00,,,0.00,weatherlink.com 1.10,2013-08-03 04:37:00,
2013-08-03 00:52:00,68.6,67.0,29.87,West,269,0.0,0.0,94,0.00,,,0.00,weatherlink.com 1.10,2013-08-03 04:52:00,
2013-08-03 01:07:00,68.7,67.0,29.87,WNW,294,0.0,1.0,94,0.00,,,0.00,weatherlink.com 1.10,2013-08-03 05:07:00,
2013-08-03 01:22:00,68.7,67.0,29.86,SW,229,0.0,0.0,95,0.00,,,0.00,weatherlink.com 1.10,2013-08-03 05:22:00,
2013-08-03 01:37:00,68.9,68.0,29.86,SW,219,0.0,4.0,95,0.00,,,0.00,weatherlink.com 1.10,2013-08-03 05:37:00,
2013-08-03 01:52:00,69.2,68.0,29.84,WNW,286,0.0,2.0,95,0.00,,,0.00,weatherlink.com 1.10,2013-08-03 05:52:00,
2013-08-03 02:07:00,69.3,68.0,29.84,SW,222,0.0,0.0,94,0.00,,,0.00,weatherlink.com 1.10,2013-08-03 06:07:00,
2013-08-03 02:22:00,69.1,67.0,29.84,NNW,342,0.0,0.0,94,0.00,,,0.00,weatherlink.com 1.10,2013-08-03 06:22:00,
2013-08-03 02:37:00,68.8,67.0,29.83,SW,219,0.0,0.0,94,0.00,,,0.00,weatherlink.com 1.10,2013-08-03 06:37:00,
2013-08-03 02:52:00,68.4,66.0,29.83,SW,219,0.0,0.0,93,0.00,,,0.00,weatherlink.com 1.10,2013-08-03 06:52:00,
2013-08-03 03:07:00,68.2,66.0,29.82,SW,219,0.0,0.0,92,0.00,,,0.00,weatherlink.com 1.10,2013-08-03 07:07:00,
2013-08-03 03:22:00,68.1,66.0,29.81,West,268,0.0,0.0,92,0.00,,,0.00,weatherlink.com 1.10,2013-08-03 07:22:00,
2013-08-03 03:37:00,68.2,66.0,29.82,West,267,0.0,1.0,92,0.00,,,0.00,weatherlink.com 1.10,2013-08-03 07:37:00,
2013-08-03 03:52:00,68.1,66.0,29.81,West,267,0.0,0.0,93,0.00,,,0.00,weatherlink.com 1.10,2013-08-03 07:52:00,
2013-08-03 04:07:00,68.1,66.0,29.81,West,267,0.0,0.0,94,0.00,,,0.00,weatherlink.com 1.10,2013-08-03 08:07:00,
2013-08-03 04:22:00,68.2,67.0,29.82,West,267,0.0,1.0,94,0.00,,,0.00,weatherlink.com 1.10,2013-08-03 08:22:00,
2013-08-03 04:37:00,68.2,67.0,29.82,West,267,0.0,1.0,94,0.00,,,0.00,weatherlink.com 1.10,2013-08-03 08:37:00,
2013-08-03 04:52:00,68.0,66.0,29.82,West,267,0.0,0.0,94,0.00,,,0.00,weatherlink.com 1.10,2013-08-03 08:52:00,
2013-08-03 05:07:00,67.9,66.0,29.82,West,267,0.0,1.0,94,0.00,,,0.00,weatherlink.com 1.10,2013-08-03 09:07:00,
2013-08-03 05:22:00,67.8,66.0,29.83,West,267,0.0,0.0,94,0.00,,,0.00,weatherlink.com 1.10,2013-08-03 09:22:00,
2013-08-03 05:37:00,67.8,66.0,29.83,West,267,0.0,0.0,94,0.00,,,0.00,weatherlink.com 1.10,2013-08-03 09:37:00,
2013-08-03 05:52:00,67.6,66.0,29.83,West,267,0.0,0.0,94,0.00,,,0.00,weatherlink.com 1.10,2013-08-03 09:52:00,
2013-08-03 06:07:00,67.6,66.0,29.84,West,269,0.0,1.0,94,0.00,,,0.00,weatherlink.com 1.10,2013-08-03 10:07:00,
2013-08-03 06:22:00,68.0,66.0,29.84,WNW,283,0.0,2.0,94,0.00,,,0.00,weatherlink.com 1.10,2013-08-03 10:22:00,
2013-08-03 06:37:00,68.5,67.0,29.83,NW,315,0.0,2.0,94,0.00,,,0.00,weatherlink.com 1.10,2013-08-03 10:37:00,
2013-08-03 06:52:00,68.9,67.0,29.83,NW,315,0.0,2.0,94,0.00,,,0.00,weatherlink.com 1.10,2013-08-03 10:52:00,
2013-08-03 07:07:00,69.2,67.0,29.82,WNW,295,0.0,2.0,92,0.00,,,0.00,weatherlink.com 1.10,2013-08-03 11:07:00,
2013-08-03 07:22:00,69.5,67.0,29.83,WNW,295,0.0,1.0,92,0.00,,,0.00,weatherlink.com 1.10,2013-08-03 11:22:00,
2013-08-03 07:38:00,69.7,67.0,29.83,WNW,295,1.0,1.0,91,0.00,,,0.00,weatherlink.com 1.10,2013-08-03 11:38:00,
2013-08-03 07:52:00,69.8,67.0,29.83,South,170,1.0,6.0,90,0.00,,,0.00,weatherlink.com 1.10,2013-08-03 11:52:00,
2013-08-03 08:07:00,70.1,66.0,29.83,SW,230,0.0,5.0,87,0.00,,,0.00,weatherlink.com 1.10,2013-08-03 12:07:00,
2013-08-03 08:22:00,70.4,66.0,29.83,West,260,0.0,3.0,86,0.00,,,0.00,weatherlink.com 1.10,2013-08-03 12:22:00,
2013-08-03 08:37:00,70.8,66.0,29.83,West,272,0.0,4.0,84,0.00,,,0.00,weatherlink.com 1.10,2013-08-03 12:37:00,
2013-08-03 08:53:00,71.7,66.0,29.84,West,267,0.0,4.0,81,0.00,,,0.00,weatherlink.com 1.10,2013-08-03 12:53:00,
2013-08-03 09:08:00,72.2,65.0,29.84,WSW,252,1.0,4.0,79,0.00,,,0.00,weatherlink.com 1.10,2013-08-03 13:08:00,
2013-08-03 09:23:00,72.4,65.0,29.84,West,264,1.0,6.0,78,0.00,,,0.00,weatherlink.com 1.10,2013-08-03 13:23:00,
2013-08-03 09:38:00,71.9,65.0,29.84,WSW,252,0.0,3.0,79,0.00,,,0.00,weatherlink.com 1.10,2013-08-03 13:38:00,
2013-08-03 09:53:00,71.5,65.0,29.84,WSW,253,4.0,6.0,80,0.00,,,0.00,weatherlink.com 1.10,2013-08-03 13:53:00,
2013-08-03 10:08:00,71.1,65.0,29.84,NW,312,0.0,6.0,81,0.00,,,0.00,weatherlink.com 1.10,2013-08-03 14:08:00,
2013-08-03 10:23:00,71.4,65.0,29.84,West,273,0.0,6.0,81,0.00,,,0.00,weatherlink.com 1.10,2013-08-03 14:23:00,
2013-08-03 10:38:00,71.7,66.0,29.84,West,278,1.0,5.0,82,0.00,,,0.00,weatherlink.com 1.10,2013-08-03 14:38:00,
2013-08-03 10:53:00,71.5,67.0,29.84,West,278,0.0,3.0,84,0.00,,,0.00,weatherlink.com 1.10,2013-08-03 14:53:00,
2013-08-03 11:08:00,71.1,66.0,29.85,WNW,298,0.0,6.0,83,0.00,,,0.00,weatherlink.com 1.10,2013-08-03 15:08:00,
2013-08-03 11:23:00,71.1,66.0,29.84,WSW,241,1.0,3.0,84,0.00,,,0.00,weatherlink.com 1.10,2013-08-03 15:23:00,
2013-08-03 11:38:00,71.2,66.0,29.84,West,267,0.0,3.0,84,0.00,,,0.00,weatherlink.com 1.10,2013-08-03 15:38:00,
2013-08-03 11:53:00,71.4,66.0,29.84,West,274,0.0,3.0,84,0.00,,,0.00,weatherlink.com 1.10,2013-08-03 15:53:00,
2013-08-03 12:08:00,71.2,67.0,29.83,SW,236,0.0,5.0,85,0.00,,,0.00,weatherlink.com 1.10,2013-08-03 16:08:00,
2013-08-03 12:23:00,71.0,67.0,29.83,West,275,0.0,1.0,88,0.00,,,0.00,weatherlink.com 1.10,2013-08-03 16:23:00,
2013-08-03 12:38:00,70.6,67.0,29.84,WSW,254,0.0,4.0,87,0.00,,,0.00,weatherlink.com 1.10,2013-08-03 16:38:00,
2013-08-03 12:53:00,70.4,67.0,29.84,NE,54,0.0,2.0,89,0.00,,,0.00,weatherlink.com 1.10,2013-08-03 16:53:00,
2013-08-03 13:08:00,70.3,67.0,29.84,West,269,1.0,2.0,90,0.01,,,0.01,weatherlink.com 1.10,2013-08-03 17:08:00,
2013-08-03 13:23:00,70.1,67.0,29.83,WSW,246,1.0,2.0,90,0.01,,,0.01,weatherlink.com 1.10,2013-08-03 17:23:00,
2013-08-03 13:38:00,70.1,67.0,29.83,WNW,290,0.0,3.0,90,0.01,,,0.01,weatherlink.com 1.10,2013-08-03 17:38:00,
2013-08-03 13:53:00,70.2,67.0,29.83,SSW,212,0.0,4.0,89,0.01,,,0.01,weatherlink.com 1.10,2013-08-03 17:53:00,
2013-08-03 14:08:00,70.7,68.0,29.83,SSW,192,0.0,4.0,90,0.00,,,0.01,weatherlink.com 1.10,2013-08-03 18:08:00,
2013-08-03 14:23:00,71.1,68.0,29.83,WNW,298,0.0,4.0,90,0.00,,,0.01,weatherlink.com 1.10,2013-08-03 18:23:00,
2013-08-03 14:38:00,71.1,68.0,29.83,WNW,286,0.0,6.0,89,0.00,,,0.01,weatherlink.com 1.10,2013-08-03 18:38:00,
2013-08-03 14:53:00,71.3,68.0,29.82,WNW,286,2.0,4.0,88,0.00,,,0.01,weatherlink.com 1.10,2013-08-03 18:53:00,
2013-08-03 15:08:00,71.7,68.0,29.82,WSW,255,0.0,6.0,88,0.00,,,0.01,weatherlink.com 1.10,2013-08-03 19:08:00,
2013-08-03 15:23:00,72.0,68.0,29.82,West,279,2.0,5.0,87,0.00,,,0.01,weatherlink.com 1.10,2013-08-03 19:23:00,
2013-08-03 15:38:00,73.8,69.0,29.81,WSW,242,0.0,6.0,85,0.00,,,0.01,weatherlink.com 1.10,2013-08-03 19:38:00,
2013-08-03 15:53:00,74.3,69.0,29.80,West,266,2.0,5.0,82,0.00,,,0.01,weatherlink.com 1.10,2013-08-03 19:53:00,
2013-08-03 16:08:00,73.9,68.0,29.80,ESE,109,0.0,6.0,82,0.00,,,0.01,weatherlink.com 1.10,2013-08-03 20:08:00,
2013-08-03 16:23:00,73.8,68.0,29.80,WSW,250,0.0,7.0,82,0.00,,,0.01,weatherlink.com 1.10,2013-08-03 20:23:00,
2013-08-03 16:38:00,75.0,68.0,29.80,WNW,301,0.0,4.0,80,0.00,,,0.01,weatherlink.com 1.10,2013-08-03 20:38:00,
2013-08-03 16:53:00,76.2,69.0,29.79,WSW,247,2.0,4.0,77,0.00,,,0.01,weatherlink.com 1.10,2013-08-03 20:53:00,
2013-08-03 17:08:00,76.7,69.0,29.79,SSE,148,0.0,3.0,77,0.00,,,0.01,weatherlink.com 1.10,2013-08-03 21:08:00,
2013-08-03 17:23:00,76.9,68.0,29.79,WNW,301,0.0,4.0,75,0.00,,,0.01,weatherlink.com 1.10,2013-08-03 21:23:00,
2013-08-03 17:38:00,77.5,69.0,29.78,NNW,331,1.0,2.0,74,0.00,,,0.01,weatherlink.com 1.10,2013-08-03 21:38:00,
2013-08-03 17:53:00,76.4,68.0,29.78,SSW,211,0.0,6.0,75,0.00,,,0.01,weatherlink.com 1.10,2013-08-03 21:53:00,
2013-08-03 18:08:00,74.9,67.0,29.78,West,274,0.0,6.0,77,0.00,,,0.01,weatherlink.com 1.10,2013-08-03 22:08:00,
2013-08-03 18:23:00,74.0,67.0,29.79,SW,216,1.0,5.0,79,0.00,,,0.01,weatherlink.com 1.10,2013-08-03 22:23:00,
2013-08-03 18:38:00,73.3,67.0,29.79,WNW,300,0.0,4.0,80,0.00,,,0.01,weatherlink.com 1.10,2013-08-03 22:38:00,
2013-08-03 18:53:00,73.0,67.0,29.79,SW,217,0.0,2.0,82,0.00,,,0.01,weatherlink.com 1.10,2013-08-03 22:53:00,
2013-08-03 19:08:00,72.5,67.0,29.79,West,266,0.0,1.0,83,0.00,,,0.01,weatherlink.com 1.10,2013-08-03 23:08:00,
2013-08-03 19:23:00,71.9,67.0,29.79,SW,228,0.0,0.0,84,0.00,,,0.01,weatherlink.com 1.10,2013-08-03 23:23:00,
2013-08-03 19:38:00,71.1,66.0,29.80,South,170,0.0,2.0,85,0.00,,,0.01,weatherlink.com 1.10,2013-08-03 23:38:00,
2013-08-03 19:53:00,70.2,66.0,29.81,SSW,203,0.0,3.0,86,0.00,,,0.01,weatherlink.com 1.10,2013-08-03 23:53:00,
2013-08-03 20:08:00,69.6,66.0,29.82,WSW,250,0.0,1.0,87,0.00,,,0.01,weatherlink.com 1.10,2013-08-04 00:08:00,
2013-08-03 20:23:00,69.1,66.0,29.82,NNW,336,0.0,3.0,88,0.00,,,0.01,weatherlink.com 1.10,2013-08-04 00:23:00,
2013-08-03 20:38:00,68.7,65.0,29.82,NNW,336,0.0,0.0,88,0.00,,,0.01,weatherlink.com 1.10,2013-08-04 00:38:00,
2013-08-03 20:53:00,68.2,65.0,29.82,NNW,336,0.0,0.0,89,0.00,,,0.01,weatherlink.com 1.10,2013-08-04 00:53:00,
2013-08-03 21:08:00,67.9,65.0,29.83,SW,229,0.0,1.0,89,0.00,,,0.01,weatherlink.com 1.10,2013-08-04 01:08:00,
2013-08-03 21:23:00,67.7,64.0,29.83,SW,224,0.0,1.0,89,0.00,,,0.01,weatherlink.com 1.10,2013-08-04 01:23:00,
2013-08-03 21:38:00,67.9,65.0,29.83,SSW,212,0.0,2.0,89,0.00,,,0.01,weatherlink.com 1.10,2013-08-04 01:38:00,
2013-08-03 21:53:00,67.8,64.0,29.83,SW,214,0.0,1.0,88,0.00,,,0.01,weatherlink.com 1.10,2013-08-04 01:53:00,
2013-08-03 22:08:00,67.8,65.0,29.82,NW,319,0.0,1.0,90,0.00,,,0.01,weatherlink.com 1.10,2013-08-04 02:08:00,
2013-08-03 22:23:00,68.0,65.0,29.82,NW,319,0.0,1.0,90,0.00,,,0.01,weatherlink.com 1.10,2013-08-04 02:23:00,
2013-08-03 22:38:00,68.0,65.0,29.83,West,270,0.0,3.0,90,0.00,,,0.01,weatherlink.com 1.10,2013-08-04 02:38:00,
2013-08-03 22:53:00,67.8,65.0,29.83,West,270,0.0,1.0,91,0.00,,,0.01,weatherlink.com 1.10,2013-08-04 02:53:00,
2013-08-03 23:08:00,67.7,65.0,29.82,WNW,300,0.0,0.0,91,0.00,,,0.01,weatherlink.com 1.10,2013-08-04 03:08:00,
2013-08-03 23:23:00,67.7,65.0,29.82,WNW,300,0.0,1.0,90,0.00,,,0.01,weatherlink.com 1.10,2013-08-04 03:23:00,
2013-08-03 23:38:00,68.0,65.0,29.83,WNW,293,0.0,2.0,89,0.00,,,0.01,weatherlink.com 1.10,2013-08-04 03:38:00,
2013-08-03 23:53:00,67.7,64.0,29.82,WNW,293,0.0,1.0,89,0.00,,,0.01,weatherlink.com 1.10,2013-08-04 03:53:00,